.
WxDataArchive / Data Records for 2014-05-27
2014-05-26 May 2014 2014-05-28

Data Records for Tuesday, 27 May 2014

Time	Temp	Chill	HIndex	Humid	Dewpt	 Wind 	HiWind	WindDir	Rain 	Barom
-----	----	-----	------	-----	-----	------	------	-------	-----	-----
00:00	77.9	77.9	79.4	56	60.9	0	2	315	0.00	29.929 
00:05	78.1	78.1	79.6	56	61.1	0	1	315	0.00	29.929 
00:10	78.1	78.1	79.6	56	61.1	0	3	315	0.00	29.929 
00:15	78.1	78.1	79.6	56	61.1	0	1	315	0.00	29.927 
00:20	78.1	78.1	79.6	56	61.1	0	2	315	0.00	29.927 
00:25	78.1	78.1	79.7	58	62.1	2	5	315	0.00	29.927 
00:30	76.8	76.8	78.6	64	63.7	5	11	292	0.00	29.958 
00:35	74.7	74.7	74.7	72	65.1	4	11	315	0.00	29.958 
00:40	73.3	73.3	73.3	76	65.3	4	7	315	0.00	29.958 
00:45	72.5	72.5	72.5	78	65.2	3	7	292	0.00	29.961 
00:50	71.1	71.1	71.1	82	65.3	3	9	315	0.00	29.961 
00:55	70.3	70.3	70.3	85	65.6	2	5	315	0.00	29.961 
01:00	69.4	69.4	69.4	86	65.0	2	5	315	0.01	29.973 
01:05	68.9	68.9	68.9	88	65.2	2	4	292	0.00	29.973 
01:10	68.6	68.6	68.6	88	64.9	1	3	292	0.00	29.973 
01:15	68.4	68.4	68.4	89	65.0	1	2	292	0.00	29.961 
01:20	68.3	68.3	68.3	89	64.9	0	3	292	0.00	29.961 
01:25	68.1	68.1	68.1	89	64.7	0	2	292	0.00	29.961 
01:30	68.1	68.1	68.1	90	65.0	0	2	292	0.00	29.955 
01:35	67.9	67.9	67.9	90	64.9	0	1	292	0.00	29.955 
01:40	67.9	67.9	67.9	90	64.9	0	0	---	0.00	29.955 
01:45	67.8	67.8	67.8	90	64.8	0	1	292	0.00	29.951 
01:50	67.8	67.8	67.8	90	64.8	0	1	292	0.00	29.951 
01:55	67.8	67.8	67.8	90	64.8	0	0	---	0.00	29.951 
02:00	67.6	67.6	67.6	90	64.6	0	0	---	0.00	29.947 
02:05	67.6	67.6	67.6	90	64.6	0	0	---	0.00	29.947 
02:10	67.4	67.4	67.4	90	64.4	0	0	---	0.00	29.947 
02:15	67.4	67.4	67.4	90	64.4	0	0	---	0.00	29.943 
02:20	67.4	67.4	67.4	90	64.4	0	0	---	0.00	29.943 
02:25	67.3	67.3	67.3	91	64.6	0	0	---	0.00	29.943 
02:30	67.3	67.3	67.3	91	64.6	0	0	---	0.00	29.942 
02:35	67.1	67.1	67.1	91	64.4	0	0	---	0.00	29.942 
02:40	67.1	67.1	67.1	91	64.4	0	0	---	0.00	29.942 
02:45	66.9	66.9	66.9	91	64.2	0	0	---	0.00	29.936 
02:50	66.8	66.8	66.8	91	64.1	0	0	---	0.00	29.936 
02:55	66.8	66.8	66.8	91	64.1	0	0	---	0.00	29.936 
03:00	66.8	66.8	66.8	91	64.1	0	0	---	0.00	29.930 
03:05	66.6	66.6	66.6	91	63.9	0	0	---	0.00	29.930 
03:10	66.6	66.6	66.6	91	63.9	0	0	---	0.00	29.930 
03:15	66.4	66.4	66.4	91	63.7	0	0	---	0.00	29.931 
03:20	66.4	66.4	66.4	91	63.7	0	0	---	0.00	29.931 
03:25	66.4	66.4	66.4	92	64.0	0	0	---	0.00	29.931 
03:30	66.4	66.4	66.4	92	64.0	0	0	---	0.00	29.929 
03:35	66.4	66.4	66.4	92	64.0	0	0	---	0.00	29.929 
03:40	66.3	66.3	66.3	92	63.9	0	0	---	0.00	29.929 
03:45	66.3	66.3	66.3	92	63.9	0	0	---	0.00	29.929 
03:50	66.3	66.3	66.3	92	63.9	0	0	---	0.00	29.929 
03:55	66.1	66.1	66.1	92	63.7	0	0	---	0.00	29.929 
04:00	66.1	66.1	66.1	92	63.7	0	0	---	0.00	29.928 
04:05	66.1	66.1	66.1	92	63.7	0	0	---	0.00	29.928 
04:10	66.1	66.1	66.1	92	63.7	0	0	---	0.00	29.928 
04:15	66.1	66.1	66.1	92	63.7	0	0	---	0.00	29.925 
04:20	66.1	66.1	66.1	93	64.0	0	0	---	0.00	29.925 
04:25	66.1	66.1	66.1	93	64.0	0	0	---	0.00	29.925 
04:30	66.1	66.1	66.1	93	64.0	0	0	---	0.00	29.925 
04:35	66.1	66.1	66.1	93	64.0	0	0	---	0.00	29.925 
04:40	66.0	66.0	66.0	93	63.9	0	0	---	0.00	29.925 
04:45	66.0	66.0	66.0	93	63.9	0	0	---	0.00	29.925 
04:50	66.0	66.0	66.0	93	63.9	0	0	---	0.00	29.925 
04:55	66.0	66.0	66.0	93	63.9	0	0	---	0.00	29.925 
05:00	66.0	66.0	66.0	93	63.9	0	0	---	0.00	29.919 
05:05	66.0	66.0	66.0	93	63.9	0	0	---	0.00	29.919 
05:10	66.0	66.0	66.0	93	63.9	0	0	---	0.00	29.919 
05:15	66.0	66.0	66.0	93	63.9	0	0	---	0.00	29.916 
05:20	66.0	66.0	66.0	93	63.9	0	0	---	0.00	29.916 
05:25	66.0	66.0	66.0	93	63.9	0	0	---	0.00	29.916 
05:30	66.0	66.0	66.0	93	63.9	0	0	---	0.00	29.915 
05:35	66.0	66.0	66.0	93	63.9	0	0	---	0.00	29.915 
05:40	66.0	66.0	66.0	93	63.9	0	0	---	0.00	29.915 
05:45	66.1	66.1	66.1	93	64.0	0	0	---	0.00	29.919 
05:50	66.1	66.1	66.1	93	64.0	0	0	---	0.00	29.919 
05:55	66.3	66.3	66.3	93	64.2	0	0	---	0.00	29.919 
06:00	66.3	66.3	66.3	93	64.2	0	1	292	0.00	29.919 
06:05	66.3	66.3	66.3	93	64.2	0	0	---	0.00	29.919 
06:10	66.3	66.3	66.3	93	64.2	0	0	---	0.00	29.919 
06:15	66.4	66.4	66.4	92	64.0	0	0	---	0.00	29.917 
06:20	66.4	66.4	66.4	92	64.0	0	0	---	0.00	29.917 
06:25	66.4	66.4	66.4	92	64.0	0	0	---	0.00	29.917 
06:30	66.4	66.4	66.4	92	64.0	0	1	292	0.00	29.916 
06:35	66.6	66.6	66.6	92	64.2	0	0	---	0.00	29.916 
06:40	66.6	66.6	66.6	92	64.2	0	0	---	0.00	29.916 
06:45	66.8	66.8	66.8	92	64.4	0	0	---	0.00	29.920 
06:50	66.9	66.9	66.9	92	64.5	0	0	---	0.00	29.920 
06:55	66.9	66.9	66.9	92	64.5	0	0	---	0.00	29.920 
07:00	67.1	67.1	67.1	92	64.7	0	0	---	0.00	29.923 
07:05	67.3	67.3	67.3	92	64.9	0	0	---	0.00	29.923 
07:10	67.4	67.4	67.4	92	65.0	0	0	---	0.00	29.923 
07:15	67.6	67.6	67.6	91	64.9	0	0	---	0.00	29.924 
07:20	67.6	67.6	67.6	91	64.9	0	0	---	0.00	29.924 
07:25	67.8	67.8	67.8	91	65.1	0	1	292	0.00	29.924 
07:30	67.9	67.9	67.9	90	64.9	0	0	---	0.00	29.927 
07:35	67.9	67.9	67.9	90	64.9	0	0	---	0.00	29.927 
07:40	68.1	68.1	68.1	89	64.7	0	0	---	0.00	29.927 
07:45	68.3	68.3	68.3	89	64.9	0	1	292	0.00	29.928 
07:50	68.4	68.4	68.4	88	64.7	0	0	---	0.00	29.928 
07:55	68.6	68.6	68.6	88	64.9	0	0	---	0.00	29.928 
08:00	68.8	68.8	68.8	87	64.8	0	1	292	0.00	29.927 
08:05	69.1	69.1	69.1	87	65.1	0	1	292	0.00	29.927 
08:10	69.3	69.3	69.3	86	64.9	0	0	---	0.00	29.927 
08:15	69.4	69.4	69.4	85	64.7	0	1	292	0.00	29.930 
08:20	69.6	69.6	69.6	84	64.5	0	1	292	0.00	29.930 
08:25	69.8	69.8	69.8	84	64.7	0	1	292	0.00	29.930 
08:30	69.9	69.9	69.9	83	64.5	0	1	292	0.00	29.929 
08:35	70.3	70.3	70.3	83	64.9	0	1	292	0.00	29.929 
08:40	70.6	70.6	70.6	82	64.8	0	2	292	0.00	29.929 
08:45	71.3	71.3	71.3	82	65.5	0	3	292	0.00	29.930 
08:50	71.6	71.6	71.6	81	65.4	0	2	292	0.00	29.930 
08:55	71.8	71.8	71.8	79	64.9	1	4	292	0.00	29.930 
09:00	71.8	71.8	71.8	79	64.9	0	2	292	0.00	29.930 
09:05	71.8	71.8	71.8	79	64.9	1	3	292	0.00	29.930 
09:10	72.0	72.0	72.0	79	65.1	1	3	292	0.00	29.930 
09:15	72.0	72.0	72.0	78	64.8	0	2	292	0.00	29.931 
09:20	72.0	72.0	72.0	78	64.8	0	2	292	0.00	29.931 
09:25	72.0	72.0	72.0	78	64.8	0	3	292	0.00	29.931 
09:30	72.0	72.0	72.0	78	64.8	0	2	292	0.00	29.932 
09:35	72.0	72.0	72.0	78	64.8	0	2	292	0.00	29.932 
09:40	72.1	72.1	72.1	78	64.8	1	4	292	0.00	29.932 
09:45	72.1	72.1	72.1	78	64.8	0	3	292	0.00	29.934 
09:50	72.3	72.3	72.3	77	64.7	1	3	292	0.00	29.934 
09:55	72.5	72.5	72.5	78	65.2	0	1	292	0.00	29.934 
10:00	72.5	72.5	72.5	77	64.9	0	3	292	0.00	29.932 
10:05	72.7	72.7	72.7	77	65.1	0	2	292	0.00	29.932 
10:10	72.8	72.8	72.8	77	65.2	1	3	292	0.00	29.932 
10:15	73.0	73.0	73.0	76	65.0	1	3	292	0.00	29.932 
10:20	73.3	73.3	73.3	76	65.3	1	4	292	0.00	29.932 
10:25	73.7	73.7	73.7	76	65.6	0	4	292	0.00	29.932 
10:30	73.9	73.9	73.9	75	65.5	1	3	292	0.00	29.932 
10:35	74.2	74.2	74.2	74	65.4	0	2	292	0.00	29.932 
10:40	74.6	74.6	74.6	73	65.4	1	3	292	0.00	29.932 
10:45	74.9	74.9	74.9	73	65.6	1	3	292	0.00	29.929 
10:50	75.3	75.3	76.8	72	65.6	1	3	292	0.00	29.929 
10:55	75.6	75.6	77.2	71	65.5	0	3	292	0.00	29.929 
11:00	75.8	75.8	77.4	71	65.7	1	3	292	0.00	29.928 
11:05	76.0	76.0	77.7	70	65.5	1	3	292	0.00	29.928 
11:10	76.5	76.5	78.1	72	66.8	0	3	292	0.00	29.928 
11:15	76.7	76.7	78.4	69	65.7	1	3	292	0.00	29.927 
11:20	76.8	76.8	78.5	70	66.3	0	2	292	0.00	29.927 
11:25	77.2	77.2	79.0	68	65.8	1	3	292	0.00	29.927 
11:30	77.7	77.7	79.6	69	66.7	1	2	292	0.00	29.925 
11:35	78.6	78.6	80.7	67	66.7	1	3	292	0.00	29.925 
11:40	79.2	79.2	81.4	66	66.8	0	2	292	0.00	29.925 
11:45	79.8	79.8	82.1	65	67.0	1	4	292	0.00	29.924 
11:50	79.9	79.9	82.0	63	66.2	1	3	292	0.00	29.924 
11:55	80.3	80.3	82.4	62	66.1	1	5	248	0.00	29.924 
12:00	80.9	80.9	82.7	58	64.7	1	4	248	0.00	29.920 
12:05	81.1	81.1	82.9	58	64.9	2	4	292	0.00	29.920 
12:10	81.2	81.2	82.6	55	63.5	1	3	225	0.00	29.920 
12:15	81.1	81.1	82.5	55	63.4	3	6	292	0.00	29.930 
12:20	81.1	81.1	82.3	54	62.9	2	6	270	0.00	29.930 
12:25	81.4	81.4	82.8	55	63.7	1	4	270	0.00	29.930 
12:30	81.4	81.4	82.8	55	63.7	2	3	315	0.00	29.929 
12:35	81.8	81.8	83.2	54	63.5	1	3	315	0.00	29.929 
12:40	82.2	82.2	83.3	52	62.8	2	5	315	0.00	29.929 
12:45	82.4	82.4	83.0	49	61.3	3	6	270	0.00	29.925 
12:50	82.6	82.6	83.6	51	62.6	2	5	270	0.00	29.925 
12:55	83.0	83.0	83.9	50	62.4	2	5	270	0.00	29.925 
13:00	82.8	82.8	83.3	48	61.1	2	4	270	0.00	29.923 
13:05	82.4	82.4	83.2	50	61.9	2	4	270	0.00	29.923 
13:10	82.6	82.6	83.4	50	62.0	2	5	270	0.00	29.923 
13:15	82.6	82.6	83.4	50	62.0	3	6	315	0.00	29.919 
13:20	82.4	82.4	83.2	50	61.9	4	6	292	0.00	29.919 
13:25	82.8	82.8	83.7	50	62.2	3	5	315	0.00	29.919 
13:30	82.8	82.8	83.7	50	62.2	2	4	292	0.00	29.915 
13:35	82.2	82.2	83.1	51	62.2	2	5	292	0.00	29.915 
13:40	82.0	82.0	83.1	52	62.6	2	6	292	0.00	29.915 
13:45	82.0	82.0	83.1	52	62.6	3	6	292	0.00	29.914 
13:50	81.6	81.6	82.8	53	62.8	3	5	292	0.00	29.914 
13:55	81.2	81.2	82.3	53	62.4	2	5	270	0.00	29.914 
14:00	81.1	81.1	82.6	56	63.9	1	3	270	0.00	29.905 
14:05	81.4	81.4	82.8	55	63.7	2	7	270	0.00	29.905 
14:10	82.2	82.2	83.6	54	63.9	2	6	292	0.00	29.905 
14:15	83.0	83.0	83.9	50	62.4	3	9	270	0.00	29.900 
14:20	83.0	83.0	83.9	50	62.4	3	6	270	0.00	29.900 
14:25	82.8	82.8	83.5	49	61.7	3	6	292	0.00	29.900 
14:30	82.8	82.8	83.5	49	61.7	3	6	270	0.00	29.897 
14:35	83.0	83.0	83.5	48	61.3	2	5	270	0.00	29.897 
14:40	83.4	83.4	84.0	48	61.6	2	6	292	0.00	29.897 
14:45	84.0	84.0	84.3	46	61.0	3	9	270	0.00	29.886 
14:50	83.2	83.2	83.6	47	60.8	3	6	292	0.00	29.886 
14:55	82.6	82.6	83.1	48	60.9	2	6	292	0.00	29.886 
15:00	82.2	82.2	83.0	50	61.7	2	6	270	0.00	29.886 
15:05	82.8	82.8	83.8	51	62.8	1	3	270	0.00	29.886 
15:10	83.2	83.2	84.1	50	62.6	3	6	270	0.00	29.886 
15:15	83.4	83.4	84.0	48	61.6	2	5	292	0.00	29.876 
15:20	83.4	83.4	84.2	49	62.2	2	6	292	0.00	29.876 
15:25	84.0	84.0	84.7	48	62.2	2	6	292	0.00	29.876 
15:30	84.3	84.3	84.9	47	61.8	2	7	292	0.00	29.869 
15:35	84.1	84.1	84.4	46	61.1	2	5	270	0.00	29.869 
15:40	84.3	84.3	84.9	47	61.8	3	7	270	0.00	29.869 
15:45	84.3	84.3	84.7	46	61.2	3	7	270	0.00	29.870 
15:50	84.3	84.3	84.7	46	61.2	2	6	270	0.00	29.870 
15:55	84.5	84.5	85.1	47	62.0	2	6	270	0.00	29.870 
16:00	84.7	84.7	84.6	43	59.7	3	7	270	0.00	29.868 
16:05	84.3	84.3	84.5	45	60.6	3	6	270	0.00	29.868 
16:10	84.5	84.5	84.7	45	60.8	3	7	270	0.00	29.868 
16:15	85.1	85.1	85.0	43	60.1	2	7	270	0.00	29.865 
16:20	84.9	84.9	84.8	43	59.9	4	7	315	0.00	29.865 
16:25	85.1	85.1	85.2	44	60.7	3	6	270	0.00	29.865 
16:30	85.3	85.3	85.0	42	59.6	2	6	292	0.00	29.857 
16:35	85.3	85.3	85.0	42	59.6	3	5	270	0.00	29.857 
16:40	85.3	85.3	85.0	42	59.6	3	5	315	0.00	29.857 
16:45	85.1	85.1	84.3	39	57.3	4	9	292	0.00	29.856 
16:50	85.1	85.1	84.3	39	57.3	3	10	270	0.00	29.856 
16:55	85.1	85.1	84.4	40	58.0	3	6	270	0.00	29.856 
17:00	84.7	84.7	84.0	40	57.7	3	7	270	0.00	29.854 
17:05	84.1	84.1	83.4	40	57.1	3	6	292	0.00	29.854 
17:10	84.5	84.5	84.0	41	58.2	2	5	292	0.00	29.854 
17:15	84.7	84.7	84.2	41	58.4	3	6	270	0.00	29.851 
17:20	84.9	84.9	84.4	41	58.5	2	5	270	0.00	29.851 
17:25	84.3	84.3	83.8	41	58.0	3	5	270	0.00	29.851 
17:30	83.6	83.6	83.4	43	58.7	2	4	270	0.00	29.846 
17:35	83.4	83.4	83.2	43	58.5	1	4	270	0.00	29.846 
17:40	83.8	83.8	83.9	45	60.2	2	4	270	0.00	29.846 
17:45	84.0	84.0	84.0	44	59.7	2	4	315	0.00	29.839 
17:50	83.6	83.6	83.5	44	59.3	2	5	292	0.00	29.839 
17:55	83.8	83.8	83.9	45	60.2	2	4	292	0.00	29.839 
18:00	84.1	84.1	84.3	45	60.4	2	6	292	0.00	29.837 
18:05	84.3	84.3	84.5	45	60.6	1	4	315	0.00	29.837 
18:10	84.1	84.1	84.4	46	61.1	1	3	315	0.00	29.837 
18:15	84.0	84.0	84.3	46	61.0	1	2	315	0.00	29.837 
18:20	83.8	83.8	84.1	46	60.8	1	3	315	0.00	29.837 
18:25	83.8	83.8	84.1	46	60.8	0	1	315	0.00	29.837 
18:30	83.8	83.8	84.1	46	60.8	1	3	315	0.00	29.841 
18:35	83.6	83.6	83.9	46	60.6	2	5	315	0.00	29.841 
18:40	83.4	83.4	83.7	46	60.4	1	3	270	0.00	29.841 
18:45	83.6	83.6	83.9	46	60.6	1	3	270	0.00	29.842 
18:50	83.6	83.6	83.9	46	60.6	1	3	270	0.00	29.842 
18:55	83.8	83.8	83.9	45	60.2	1	5	270	0.00	29.842 
19:00	84.0	84.0	84.1	45	60.3	1	4	315	0.00	29.843 
19:05	83.8	83.8	83.7	44	59.5	1	3	315	0.00	29.843 
19:10	83.8	83.8	83.7	44	59.5	2	4	292	0.00	29.843 
19:15	83.6	83.6	83.7	45	60.0	1	3	292	0.00	29.841 
19:20	83.6	83.6	83.5	44	59.3	1	3	292	0.00	29.841 
19:25	83.6	83.6	83.5	44	59.3	1	3	292	0.00	29.841 
19:30	83.8	83.8	83.6	43	58.9	1	3	292	0.00	29.845 
19:35	83.8	83.8	83.6	43	58.9	1	4	292	0.00	29.845 
19:40	84.0	84.0	83.8	43	59.1	1	3	292	0.00	29.845 
19:45	84.0	84.0	83.8	43	59.1	1	4	270	0.00	29.847 
19:50	83.8	83.8	83.4	42	58.2	1	4	270	0.00	29.847 
19:55	83.6	83.6	83.4	43	58.7	1	4	270	0.00	29.847 
20:00	83.4	83.4	83.2	43	58.5	1	2	270	0.00	29.844 
20:05	83.2	83.2	83.0	43	58.3	1	3	270	0.00	29.844 
20:10	83.0	83.0	82.9	44	58.8	0	2	270	0.00	29.844 
20:15	83.0	83.0	82.9	44	58.8	1	4	270	0.00	29.851 
20:20	82.8	82.8	82.7	44	58.6	2	4	270	0.00	29.851 
20:25	82.6	82.6	82.5	44	58.4	1	3	270	0.00	29.851 
20:30	82.2	82.2	82.3	45	58.7	0	1	270	0.00	29.852 
20:35	82.0	82.0	82.2	46	59.1	0	2	270	0.00	29.852 
20:40	81.6	81.6	81.8	46	58.8	0	2	270	0.00	29.852 
20:45	81.4	81.4	81.8	47	59.2	0	0	---	0.00	29.858 
20:50	81.1	81.1	81.6	48	59.5	0	1	270	0.00	29.858 
20:55	80.9	80.9	81.5	49	59.9	0	1	270	0.00	29.858 
21:00	80.5	80.5	81.3	50	60.1	0	0	---	0.00	29.859 
21:05	80.1	80.1	80.9	50	59.8	0	0	---	0.00	29.859 
21:10	79.8	79.8	80.7	51	60.0	0	0	---	0.00	29.859 
21:15	79.4	79.4	80.5	52	60.2	0	0	---	0.00	29.864 
21:20	78.8	78.8	80.0	53	60.2	0	0	---	0.00	29.864 
21:25	78.5	78.5	79.8	54	60.4	0	0	---	0.00	29.864 
21:30	77.9	77.9	79.4	55	60.4	0	0	---	0.00	29.867 
21:35	77.6	77.6	79.2	55	60.1	0	0	---	0.00	29.867 
21:40	77.0	77.0	78.7	57	60.6	0	0	---	0.00	29.867 
21:45	76.7	76.7	78.5	58	60.8	0	0	---	0.00	29.869 
21:50	76.1	76.1	78.1	58	60.2	0	0	---	0.00	29.869 
21:55	75.8	75.8	77.9	59	60.4	0	0	---	0.00	29.869 
22:00	75.4	75.4	77.6	60	60.5	0	0	---	0.00	29.871 
22:05	75.1	75.1	77.4	61	60.7	0	0	---	0.00	29.871 
22:10	74.9	74.9	74.9	62	61.0	0	0	---	0.00	29.871 
22:15	74.6	74.6	74.6	62	60.7	0	0	---	0.00	29.873 
22:20	74.2	74.2	74.2	62	60.3	0	0	---	0.00	29.873 
22:25	73.9	73.9	73.9	64	60.9	0	0	---	0.00	29.873 
22:30	73.7	73.7	73.7	65	61.2	0	0	---	0.00	29.877 
22:35	73.3	73.3	73.3	65	60.8	0	0	---	0.00	29.877 
22:40	73.0	73.0	73.0	66	61.0	0	0	---	0.00	29.877 
22:45	72.8	72.8	72.8	67	61.2	0	0	---	0.00	29.882 
22:50	72.7	72.7	72.7	68	61.5	0	0	---	0.00	29.882 
22:55	72.5	72.5	72.5	69	61.7	0	0	---	0.00	29.882 
23:00	72.1	72.1	72.1	69	61.4	0	0	---	0.00	29.884 
23:05	72.0	72.0	72.0	70	61.7	0	0	---	0.00	29.884 
23:10	71.8	71.8	71.8	70	61.5	0	0	---	0.00	29.884 
23:15	71.5	71.5	71.5	71	61.6	0	0	---	0.00	29.881 
23:20	71.3	71.3	71.3	72	61.8	0	0	---	0.00	29.881 
23:25	71.1	71.1	71.1	73	62.0	0	0	---	0.00	29.881 
23:30	70.9	70.9	70.9	73	61.8	0	0	---	0.00	29.874 
23:35	70.6	70.6	70.6	73	61.5	0	0	---	0.00	29.874 
23:40	70.4	70.4	70.4	73	61.3	0	0	---	0.00	29.874 
23:45	70.4	70.4	70.4	74	61.7	0	0	---	0.00	29.874 
23:50	70.3	70.3	70.3	74	61.6	0	0	---	0.00	29.874 
23:55	70.1	70.1	70.1	74	61.4	0	0	---	0.00	29.874 

CoCoRaHS
IN-AL-39
A2 Web Hosting
Creative Commons License
GoDaddy
search engine by freefind advanced

loaded 2018-11-15 14:09:27 • last modified 2010-11-18 10:43:29
Privacy PolicyDisclaimer
• wx.awcolley.com is powered by PmWiki v.2002016 •
• all content (unless otherwise noted) © 2018 A W Colley